sensor_id;sensor_type;location;lat;lon;timestamp;P1;durP1;ratioP1;P2;durP2;ratioP2
64208;SDS011;50527;52.414;13.226;2022-09-21T00:00:32;1.85;;;0.50;;
64208;SDS011;50527;52.414;13.226;2022-09-21T00:02:58;0.80;;;0.40;;
64208;SDS011;50527;52.414;13.226;2022-09-21T00:05:24;2.53;;;0.70;;
64208;SDS011;50527;52.414;13.226;2022-09-21T00:07:50;1.88;;;0.60;;
64208;SDS011;50527;52.414;13.226;2022-09-21T00:10:16;1.63;;;0.50;;
64208;SDS011;50527;52.414;13.226;2022-09-21T00:12:43;2.20;;;0.65;;
64208;SDS011;50527;52.414;13.226;2022-09-21T00:15:09;1.10;;;0.50;;
64208;SDS011;50527;52.414;13.226;2022-09-21T00:17:35;1.00;;;0.50;;
64208;SDS011;50527;52.414;13.226;2022-09-21T00:20:02;3.53;;;0.60;;
64208;SDS011;50527;52.414;13.226;2022-09-21T00:22:30;1.83;;;0.43;;
64208;SDS011;50527;52.414;13.226;2022-09-21T00:24:58;0.55;;;0.40;;
64208;SDS011;50527;52.414;13.226;2022-09-21T00:27:23;4.00;;;0.43;;
64208;SDS011;50527;52.414;13.226;2022-09-21T00:29:54;2.05;;;0.77;;
64208;SDS011;50527;52.414;13.226;2022-09-21T00:32:20;0.65;;;0.35;;
64208;SDS011;50527;52.414;13.226;2022-09-21T00:34:46;3.15;;;0.47;;
64208;SDS011;50527;52.414;13.226;2022-09-21T00:37:11;1.55;;;0.40;;
64208;SDS011;50527;52.414;13.226;2022-09-21T00:39:37;1.23;;;0.63;;
64208;SDS011;50527;52.414;13.226;2022-09-21T00:42:07;1.42;;;0.70;;
64208;SDS011;50527;52.414;13.226;2022-09-21T00:44:42;1.10;;;0.50;;
64208;SDS011;50527;52.414;13.226;2022-09-21T00:47:09;2.35;;;0.57;;
64208;SDS011;50527;52.414;13.226;2022-09-21T00:49:38;2.65;;;0.47;;
64208;SDS011;50527;52.414;13.226;2022-09-21T00:52:05;1.10;;;0.52;;
64208;SDS011;50527;52.414;13.226;2022-09-21T00:54:34;2.45;;;0.60;;
64208;SDS011;50527;52.414;13.226;2022-09-21T00:57:08;1.67;;;0.40;;
64208;SDS011;50527;52.414;13.226;2022-09-21T00:59:35;1.73;;;0.50;;
64208;SDS011;50527;52.414;13.226;2022-09-21T01:02:02;4.28;;;0.70;;
64208;SDS011;50527;52.414;13.226;2022-09-21T01:04:28;0.95;;;0.35;;
64208;SDS011;50527;52.414;13.226;2022-09-21T01:06:55;1.33;;;0.50;;
64208;SDS011;50527;52.414;13.226;2022-09-21T01:09:23;0.50;;;0.35;;
64208;SDS011;50527;52.414;13.226;2022-09-21T01:11:54;1.10;;;0.50;;
64208;SDS011;50527;52.414;13.226;2022-09-21T01:20:39;1.00;;;0.40;;
64208;SDS011;50527;52.414;13.226;2022-09-21T01:26:07;1.20;;;0.50;;
64208;SDS011;50527;52.414;13.226;2022-09-21T01:28:57;3.10;;;0.52;;
64208;SDS011;50527;52.414;13.226;2022-09-21T01:31:38;0.45;;;0.30;;
64208;SDS011;50527;52.414;13.226;2022-09-21T01:34:13;0.63;;;0.40;;
64208;SDS011;50527;52.414;13.226;2022-09-21T01:36:48;3.47;;;0.52;;
64208;SDS011;50527;52.414;13.226;2022-09-21T01:39:16;1.02;;;0.45;;
64208;SDS011;50527;52.414;13.226;2022-09-21T01:41:44;2.15;;;0.50;;
64208;SDS011;50527;52.414;13.226;2022-09-21T01:44:13;0.93;;;0.50;;
64208;SDS011;50527;52.414;13.226;2022-09-21T01:46:42;0.52;;;0.20;;
64208;SDS011;50527;52.414;13.226;2022-09-21T01:49:12;1.95;;;0.40;;
64208;SDS011;50527;52.414;13.226;2022-09-21T01:51:44;1.23;;;0.60;;
64208;SDS011;50527;52.414;13.226;2022-09-21T01:54:27;1.48;;;0.45;;
64208;SDS011;50527;52.414;13.226;2022-09-21T01:57:00;0.80;;;0.37;;
64208;SDS011;50527;52.414;13.226;2022-09-21T02:02:13;1.42;;;0.30;;
64208;SDS011;50527;52.414;13.226;2022-09-21T02:04:43;2.55;;;0.40;;
64208;SDS011;50527;52.414;13.226;2022-09-21T02:07:08;0.75;;;0.40;;
64208;SDS011;50527;52.414;13.226;2022-09-21T02:09:35;1.58;;;0.57;;
64208;SDS011;50527;52.414;13.226;2022-09-21T02:12:01;3.15;;;1.10;;
64208;SDS011;50527;52.414;13.226;2022-09-21T02:14:27;1.60;;;0.50;;
64208;SDS011;50527;52.414;13.226;2022-09-21T02:16:59;0.77;;;0.40;;
64208;SDS011;50527;52.414;13.226;2022-09-21T02:19:56;0.80;;;0.50;;
64208;SDS011;50527;52.414;13.226;2022-09-21T02:22:50;1.10;;;0.40;;
64208;SDS011;50527;52.414;13.226;2022-09-21T02:25:32;0.77;;;0.40;;
64208;SDS011;50527;52.414;13.226;2022-09-21T02:28:07;1.15;;;0.60;;
64208;SDS011;50527;52.414;13.226;2022-09-21T02:30:47;2.95;;;0.57;;
64208;SDS011;50527;52.414;13.226;2022-09-21T02:33:36;1.05;;;0.40;;
64208;SDS011;50527;52.414;13.226;2022-09-21T02:36:15;1.55;;;0.52;;
64208;SDS011;50527;52.414;13.226;2022-09-21T02:38:52;1.23;;;0.60;;
64208;SDS011;50527;52.414;13.226;2022-09-21T02:41:27;1.67;;;0.60;;
64208;SDS011;50527;52.414;13.226;2022-09-21T02:44:15;1.30;;;0.50;;
64208;SDS011;50527;52.414;13.226;2022-09-21T02:49:26;3.55;;;0.40;;
64208;SDS011;50527;52.414;13.226;2022-09-21T02:51:56;0.88;;;0.35;;
64208;SDS011;50527;52.414;13.226;2022-09-21T02:54:26;1.23;;;0.50;;
64208;SDS011;50527;52.414;13.226;2022-09-21T02:56:55;1.75;;;0.57;;
64208;SDS011;50527;52.414;13.226;2022-09-21T02:59:22;1.33;;;0.50;;
64208;SDS011;50527;52.414;13.226;2022-09-21T03:01:47;0.30;;;0.20;;
64208;SDS011;50527;52.414;13.226;2022-09-21T03:04:13;1.17;;;0.40;;
64208;SDS011;50527;52.414;13.226;2022-09-21T03:06:40;1.35;;;0.40;;
64208;SDS011;50527;52.414;13.226;2022-09-21T03:09:05;1.38;;;0.50;;
64208;SDS011;50527;52.414;13.226;2022-09-21T03:11:31;0.73;;;0.30;;
64208;SDS011;50527;52.414;13.226;2022-09-21T03:13:57;3.00;;;0.57;;
64208;SDS011;50527;52.414;13.226;2022-09-21T03:16:23;0.38;;;0.28;;
64208;SDS011;50527;52.414;13.226;2022-09-21T03:18:49;1.27;;;0.50;;
64208;SDS011;50527;52.414;13.226;2022-09-21T03:21:15;0.80;;;0.43;;
64208;SDS011;50527;52.414;13.226;2022-09-21T03:23:40;0.90;;;0.40;;
64208;SDS011;50527;52.414;13.226;2022-09-21T03:26:06;1.05;;;0.50;;
64208;SDS011;50527;52.414;13.226;2022-09-21T03:28:32;0.68;;;0.30;;
64208;SDS011;50527;52.414;13.226;2022-09-21T03:30:58;3.95;;;0.40;;
64208;SDS011;50527;52.414;13.226;2022-09-21T03:33:24;1.15;;;0.40;;
64208;SDS011;50527;52.414;13.226;2022-09-21T03:35:50;1.45;;;0.52;;
64208;SDS011;50527;52.414;13.226;2022-09-21T03:38:16;1.30;;;0.45;;
64208;SDS011;50527;52.414;13.226;2022-09-21T03:40:43;0.98;;;0.40;;
64208;SDS011;50527;52.414;13.226;2022-09-21T03:43:13;7.18;;;0.70;;
64208;SDS011;50527;52.414;13.226;2022-09-21T03:45:39;3.28;;;0.63;;
64208;SDS011;50527;52.414;13.226;2022-09-21T03:48:06;0.60;;;0.30;;
64208;SDS011;50527;52.414;13.226;2022-09-21T03:50:32;2.08;;;0.50;;
64208;SDS011;50527;52.414;13.226;2022-09-21T03:52:58;1.38;;;0.50;;
64208;SDS011;50527;52.414;13.226;2022-09-21T03:55:24;0.85;;;0.40;;
64208;SDS011;50527;52.414;13.226;2022-09-21T03:57:50;0.93;;;0.40;;
64208;SDS011;50527;52.414;13.226;2022-09-21T04:00:15;1.67;;;0.60;;
64208;SDS011;50527;52.414;13.226;2022-09-21T04:02:41;1.63;;;0.40;;
64208;SDS011;50527;52.414;13.226;2022-09-21T04:05:08;0.73;;;0.30;;
64208;SDS011;50527;52.414;13.226;2022-09-21T04:07:35;1.05;;;0.47;;
64208;SDS011;50527;52.414;13.226;2022-09-21T04:10:01;1.17;;;0.50;;
64208;SDS011;50527;52.414;13.226;2022-09-21T04:12:31;3.88;;;0.50;;
64208;SDS011;50527;52.414;13.226;2022-09-21T04:14:58;0.60;;;0.40;;
64208;SDS011;50527;52.414;13.226;2022-09-21T04:17:25;2.17;;;0.45;;
64208;SDS011;50527;52.414;13.226;2022-09-21T04:19:51;0.88;;;0.47;;
64208;SDS011;50527;52.414;13.226;2022-09-21T04:22:16;0.68;;;0.30;;
64208;SDS011;50527;52.414;13.226;2022-09-21T04:24:42;1.17;;;0.40;;
64208;SDS011;50527;52.414;13.226;2022-09-21T04:27:08;1.52;;;0.60;;
64208;SDS011;50527;52.414;13.226;2022-09-21T04:29:35;1.27;;;0.50;;
64208;SDS011;50527;52.414;13.226;2022-09-21T04:32:01;1.02;;;0.47;;
64208;SDS011;50527;52.414;13.226;2022-09-21T04:34:28;1.27;;;0.47;;
64208;SDS011;50527;52.414;13.226;2022-09-21T04:36:55;0.90;;;0.50;;
64208;SDS011;50527;52.414;13.226;2022-09-21T04:39:22;2.42;;;0.50;;
64208;SDS011;50527;52.414;13.226;2022-09-21T04:41:48;1.13;;;0.40;;
64208;SDS011;50527;52.414;13.226;2022-09-21T04:44:14;1.10;;;0.40;;
64208;SDS011;50527;52.414;13.226;2022-09-21T04:46:39;1.30;;;0.40;;
64208;SDS011;50527;52.414;13.226;2022-09-21T04:49:04;0.95;;;0.50;;
64208;SDS011;50527;52.414;13.226;2022-09-21T04:51:30;0.77;;;0.38;;
64208;SDS011;50527;52.414;13.226;2022-09-21T04:53:55;1.20;;;0.50;;
64208;SDS011;50527;52.414;13.226;2022-09-21T04:56:21;1.73;;;0.50;;
64208;SDS011;50527;52.414;13.226;2022-09-21T04:58:46;0.77;;;0.40;;
64208;SDS011;50527;52.414;13.226;2022-09-21T05:01:12;1.25;;;0.47;;
64208;SDS011;50527;52.414;13.226;2022-09-21T05:03:37;0.75;;;0.38;;
64208;SDS011;50527;52.414;13.226;2022-09-21T05:06:03;1.38;;;0.50;;
64208;SDS011;50527;52.414;13.226;2022-09-21T05:08:29;1.00;;;0.50;;
64208;SDS011;50527;52.414;13.226;2022-09-21T05:11:14;1.42;;;0.63;;
64208;SDS011;50527;52.414;13.226;2022-09-21T05:13:42;1.27;;;0.60;;
64208;SDS011;50527;52.414;13.226;2022-09-21T05:16:08;1.33;;;0.52;;
64208;SDS011;50527;52.414;13.226;2022-09-21T05:18:34;2.20;;;0.55;;
64208;SDS011;50527;52.414;13.226;2022-09-21T05:21:00;0.95;;;0.50;;
64208;SDS011;50527;52.414;13.226;2022-09-21T05:23:27;1.00;;;0.35;;
64208;SDS011;50527;52.414;13.226;2022-09-21T05:25:55;3.10;;;0.50;;
64208;SDS011;50527;52.414;13.226;2022-09-21T05:28:21;1.58;;;0.52;;
64208;SDS011;50527;52.414;13.226;2022-09-21T05:30:48;1.15;;;0.55;;
64208;SDS011;50527;52.414;13.226;2022-09-21T05:33:22;2.45;;;0.60;;
64208;SDS011;50527;52.414;13.226;2022-09-21T05:38:54;2.47;;;0.80;;
64208;SDS011;50527;52.414;13.226;2022-09-21T05:41:20;0.95;;;0.52;;
64208;SDS011;50527;52.414;13.226;2022-09-21T05:43:46;1.63;;;0.50;;
64208;SDS011;50527;52.414;13.226;2022-09-21T05:46:17;2.47;;;0.73;;
64208;SDS011;50527;52.414;13.226;2022-09-21T05:49:17;2.20;;;0.60;;
64208;SDS011;50527;52.414;13.226;2022-09-21T05:51:59;7.07;;;0.98;;
64208;SDS011;50527;52.414;13.226;2022-09-21T05:57:34;1.33;;;0.75;;
64208;SDS011;50527;52.414;13.226;2022-09-21T06:00:12;1.83;;;0.90;;
64208;SDS011;50527;52.414;13.226;2022-09-21T06:05:38;4.10;;;1.13;;
64208;SDS011;50527;52.414;13.226;2022-09-21T06:08:04;3.83;;;0.88;;
64208;SDS011;50527;52.414;13.226;2022-09-21T06:10:31;3.47;;;1.15;;
64208;SDS011;50527;52.414;13.226;2022-09-21T06:12:58;4.65;;;1.00;;
64208;SDS011;50527;52.414;13.226;2022-09-21T06:15:24;1.50;;;0.80;;
64208;SDS011;50527;52.414;13.226;2022-09-21T06:17:50;1.42;;;0.90;;
64208;SDS011;50527;52.414;13.226;2022-09-21T06:20:15;2.30;;;1.02;;
64208;SDS011;50527;52.414;13.226;2022-09-21T06:22:41;1.17;;;0.80;;
64208;SDS011;50527;52.414;13.226;2022-09-21T06:25:06;1.98;;;0.80;;
64208;SDS011;50527;52.414;13.226;2022-09-21T06:27:32;3.33;;;0.70;;
64208;SDS011;50527;52.414;13.226;2022-09-21T06:29:57;1.48;;;0.80;;
64208;SDS011;50527;52.414;13.226;2022-09-21T06:32:23;1.60;;;0.80;;
64208;SDS011;50527;52.414;13.226;2022-09-21T06:34:48;1.23;;;0.60;;
64208;SDS011;50527;52.414;13.226;2022-09-21T06:37:14;1.10;;;0.60;;
64208;SDS011;50527;52.414;13.226;2022-09-21T06:39:39;1.13;;;0.60;;
64208;SDS011;50527;52.414;13.226;2022-09-21T06:42:05;1.73;;;0.70;;
64208;SDS011;50527;52.414;13.226;2022-09-21T06:44:30;2.80;;;0.65;;
64208;SDS011;50527;52.414;13.226;2022-09-21T06:46:56;1.48;;;0.75;;
64208;SDS011;50527;52.414;13.226;2022-09-21T06:49:21;2.15;;;0.73;;
64208;SDS011;50527;52.414;13.226;2022-09-21T06:51:47;5.15;;;1.20;;
64208;SDS011;50527;52.414;13.226;2022-09-21T06:54:12;2.22;;;0.70;;
64208;SDS011;50527;52.414;13.226;2022-09-21T06:56:38;2.38;;;0.70;;
64208;SDS011;50527;52.414;13.226;2022-09-21T06:59:06;2.80;;;0.70;;
64208;SDS011;50527;52.414;13.226;2022-09-21T07:01:32;0.95;;;0.60;;
64208;SDS011;50527;52.414;13.226;2022-09-21T07:03:57;4.20;;;1.17;;
64208;SDS011;50527;52.414;13.226;2022-09-21T07:06:23;2.45;;;1.10;;
64208;SDS011;50527;52.414;13.226;2022-09-21T07:08:50;4.03;;;0.95;;
64208;SDS011;50527;52.414;13.226;2022-09-21T07:11:17;2.03;;;0.88;;
64208;SDS011;50527;52.414;13.226;2022-09-21T07:13:43;1.67;;;0.80;;
64208;SDS011;50527;52.414;13.226;2022-09-21T07:16:09;1.48;;;0.75;;
64208;SDS011;50527;52.414;13.226;2022-09-21T07:18:40;3.90;;;0.80;;
64208;SDS011;50527;52.414;13.226;2022-09-21T07:21:07;1.65;;;0.73;;
64208;SDS011;50527;52.414;13.226;2022-09-21T07:23:34;3.50;;;0.80;;
64208;SDS011;50527;52.414;13.226;2022-09-21T07:26:04;2.15;;;0.80;;
64208;SDS011;50527;52.414;13.226;2022-09-21T07:28:32;7.30;;;1.38;;
64208;SDS011;50527;52.414;13.226;2022-09-21T07:30:58;0.93;;;0.65;;
64208;SDS011;50527;52.414;13.226;2022-09-21T07:33:29;3.58;;;1.00;;
64208;SDS011;50527;52.414;13.226;2022-09-21T07:35:57;5.18;;;1.08;;
64208;SDS011;50527;52.414;13.226;2022-09-21T07:38:23;1.52;;;1.08;;
64208;SDS011;50527;52.414;13.226;2022-09-21T07:40:48;4.60;;;1.03;;
64208;SDS011;50527;52.414;13.226;2022-09-21T07:43:14;3.42;;;0.95;;
64208;SDS011;50527;52.414;13.226;2022-09-21T07:45:40;2.30;;;1.10;;
64208;SDS011;50527;52.414;13.226;2022-09-21T07:48:06;4.00;;;1.08;;
64208;SDS011;50527;52.414;13.226;2022-09-21T07:50:35;3.58;;;1.40;;
64208;SDS011;50527;52.414;13.226;2022-09-21T07:53:02;9.05;;;1.33;;
64208;SDS011;50527;52.414;13.226;2022-09-21T07:55:28;3.30;;;1.20;;
64208;SDS011;50527;52.414;13.226;2022-09-21T07:57:54;5.38;;;1.20;;
64208;SDS011;50527;52.414;13.226;2022-09-21T08:00:38;2.13;;;1.20;;
64208;SDS011;50527;52.414;13.226;2022-09-21T08:03:04;2.22;;;0.90;;
64208;SDS011;50527;52.414;13.226;2022-09-21T08:05:30;3.90;;;1.05;;
64208;SDS011;50527;52.414;13.226;2022-09-21T08:07:57;3.30;;;1.00;;
64208;SDS011;50527;52.414;13.226;2022-09-21T08:10:23;3.70;;;1.13;;
64208;SDS011;50527;52.414;13.226;2022-09-21T08:12:52;2.60;;;1.10;;
64208;SDS011;50527;52.414;13.226;2022-09-21T08:15:18;2.38;;;1.02;;
64208;SDS011;50527;52.414;13.226;2022-09-21T08:17:43;2.65;;;1.17;;
64208;SDS011;50527;52.414;13.226;2022-09-21T08:20:09;2.20;;;0.90;;
64208;SDS011;50527;52.414;13.226;2022-09-21T08:22:35;4.55;;;1.20;;
64208;SDS011;50527;52.414;13.226;2022-09-21T08:25:00;2.15;;;1.00;;
64208;SDS011;50527;52.414;13.226;2022-09-21T08:27:27;3.97;;;1.10;;
64208;SDS011;50527;52.414;13.226;2022-09-21T08:29:52;2.78;;;1.35;;
64208;SDS011;50527;52.414;13.226;2022-09-21T08:32:18;1.33;;;0.80;;
64208;SDS011;50527;52.414;13.226;2022-09-21T08:34:43;2.65;;;0.90;;
64208;SDS011;50527;52.414;13.226;2022-09-21T08:37:09;2.15;;;0.82;;
64208;SDS011;50527;52.414;13.226;2022-09-21T08:39:34;3.55;;;1.08;;
64208;SDS011;50527;52.414;13.226;2022-09-21T08:42:09;2.22;;;1.00;;
64208;SDS011;50527;52.414;13.226;2022-09-21T08:44:55;2.88;;;1.00;;
64208;SDS011;50527;52.414;13.226;2022-09-21T08:47:44;3.13;;;0.90;;
64208;SDS011;50527;52.414;13.226;2022-09-21T08:50:25;4.28;;;1.00;;
64208;SDS011;50527;52.414;13.226;2022-09-21T08:52:57;1.35;;;0.68;;
64208;SDS011;50527;52.414;13.226;2022-09-21T08:55:27;3.80;;;0.80;;
64208;SDS011;50527;52.414;13.226;2022-09-21T08:57:53;2.50;;;0.95;;
64208;SDS011;50527;52.414;13.226;2022-09-21T09:00:19;3.50;;;0.90;;
64208;SDS011;50527;52.414;13.226;2022-09-21T09:02:49;2.40;;;0.80;;
64208;SDS011;50527;52.414;13.226;2022-09-21T09:05:39;2.50;;;0.80;;
64208;SDS011;50527;52.414;13.226;2022-09-21T09:08:50;3.92;;;0.93;;
64208;SDS011;50527;52.414;13.226;2022-09-21T09:11:36;4.85;;;0.90;;
64208;SDS011;50527;52.414;13.226;2022-09-21T09:19:50;1.65;;;0.50;;
64208;SDS011;50527;52.414;13.226;2022-09-21T09:22:31;3.63;;;0.60;;
64208;SDS011;50527;52.414;13.226;2022-09-21T09:25:02;1.75;;;0.47;;
64208;SDS011;50527;52.414;13.226;2022-09-21T09:27:34;2.60;;;0.63;;
64208;SDS011;50527;52.414;13.226;2022-09-21T09:30:04;3.92;;;0.73;;
64208;SDS011;50527;52.414;13.226;2022-09-21T09:35:21;1.80;;;0.60;;
64208;SDS011;50527;52.414;13.226;2022-09-21T09:37:50;4.97;;;0.52;;
64208;SDS011;50527;52.414;13.226;2022-09-21T09:40:38;3.53;;;0.75;;
64208;SDS011;50527;52.414;13.226;2022-09-21T09:43:08;1.70;;;0.50;;
64208;SDS011;50527;52.414;13.226;2022-09-21T09:46:02;3.70;;;0.60;;
64208;SDS011;50527;52.414;13.226;2022-09-21T09:51:21;3.40;;;0.40;;
64208;SDS011;50527;52.414;13.226;2022-09-21T09:53:46;1.25;;;0.30;;
64208;SDS011;50527;52.414;13.226;2022-09-21T09:56:12;1.42;;;0.40;;
64208;SDS011;50527;52.414;13.226;2022-09-21T09:58:58;3.33;;;0.55;;
64208;SDS011;50527;52.414;13.226;2022-09-21T10:01:43;0.97;;;0.37;;
64208;SDS011;50527;52.414;13.226;2022-09-21T10:04:11;6.18;;;0.47;;
64208;SDS011;50527;52.414;13.226;2022-09-21T10:06:38;0.52;;;0.28;;
64208;SDS011;50527;52.414;13.226;2022-09-21T10:09:47;0.75;;;0.30;;
64208;SDS011;50527;52.414;13.226;2022-09-21T10:11:55;0.65;;;0.20;;
64208;SDS011;50527;52.414;13.226;2022-09-21T10:14:24;1.30;;;0.30;;
64208;SDS011;50527;52.414;13.226;2022-09-21T10:16:53;1.15;;;0.25;;
64208;SDS011;50527;52.414;13.226;2022-09-21T10:19:21;9.52;;;1.33;;
64208;SDS011;50527;52.414;13.226;2022-09-21T10:21:51;1.30;;;0.30;;
64208;SDS011;50527;52.414;13.226;2022-09-21T10:24:39;0.63;;;0.10;;
64208;SDS011;50527;52.414;13.226;2022-09-21T10:27:15;1.23;;;0.20;;
64208;SDS011;50527;52.414;13.226;2022-09-21T10:29:46;0.10;;;0.10;;
64208;SDS011;50527;52.414;13.226;2022-09-21T10:34:38;0.40;;;0.10;;
64208;SDS011;50527;52.414;13.226;2022-09-21T10:39:57;1.13;;;0.40;;
64208;SDS011;50527;52.414;13.226;2022-09-21T10:42:23;1.17;;;0.20;;
64208;SDS011;50527;52.414;13.226;2022-09-21T10:44:50;2.95;;;0.30;;
64208;SDS011;50527;52.414;13.226;2022-09-21T10:47:21;0.45;;;0.10;;
64208;SDS011;50527;52.414;13.226;2022-09-21T10:49:55;1.75;;;0.28;;
64208;SDS011;50527;52.414;13.226;2022-09-21T10:52:24;0.70;;;0.20;;
64208;SDS011;50527;52.414;13.226;2022-09-21T10:54:55;0.93;;;0.25;;
64208;SDS011;50527;52.414;13.226;2022-09-21T10:57:22;1.08;;;0.28;;
64208;SDS011;50527;52.414;13.226;2022-09-21T10:59:49;1.60;;;0.25;;
64208;SDS011;50527;52.414;13.226;2022-09-21T11:02:33;0.82;;;0.20;;
64208;SDS011;50527;52.414;13.226;2022-09-21T11:05:05;0.13;;;0.10;;
64208;SDS011;50527;52.414;13.226;2022-09-21T11:07:38;5.72;;;0.32;;
64208;SDS011;50527;52.414;13.226;2022-09-21T11:10:20;1.10;;;0.10;;
64208;SDS011;50527;52.414;13.226;2022-09-21T11:13:02;0.75;;;0.20;;
64208;SDS011;50527;52.414;13.226;2022-09-21T11:21:40;1.83;;;0.20;;
64208;SDS011;50527;52.414;13.226;2022-09-21T11:35:24;0.20;;;0.10;;
64208;SDS011;50527;52.414;13.226;2022-09-21T11:40:37;1.13;;;0.10;;
64208;SDS011;50527;52.414;13.226;2022-09-21T11:43:32;0.20;;;0.13;;
64208;SDS011;50527;52.414;13.226;2022-09-21T11:51:55;1.25;;;0.20;;
64208;SDS011;50527;52.414;13.226;2022-09-21T11:57:51;0.47;;;0.10;;
64208;SDS011;50527;52.414;13.226;2022-09-21T12:00:26;0.20;;;0.10;;
64208;SDS011;50527;52.414;13.226;2022-09-21T12:05:32;1.23;;;0.20;;
64208;SDS011;50527;52.414;13.226;2022-09-21T12:11:18;1.25;;;0.15;;
64208;SDS011;50527;52.414;13.226;2022-09-21T12:14:09;0.35;;;0.13;;
64208;SDS011;50527;52.414;13.226;2022-09-21T12:17:10;0.85;;;0.10;;
64208;SDS011;50527;52.414;13.226;2022-09-21T12:22:30;0.28;;;0.10;;
64208;SDS011;50527;52.414;13.226;2022-09-21T12:25:03;0.32;;;0.10;;
64208;SDS011;50527;52.414;13.226;2022-09-21T12:27:41;0.25;;;0.13;;
64208;SDS011;50527;52.414;13.226;2022-09-21T12:30:17;0.22;;;0.10;;
64208;SDS011;50527;52.414;13.226;2022-09-21T12:35:28;0.10;;;0.10;;
64208;SDS011;50527;52.414;13.226;2022-09-21T12:38:16;1.00;;;0.20;;
64208;SDS011;50527;52.414;13.226;2022-09-21T12:40:53;0.68;;;0.20;;
64208;SDS011;50527;52.414;13.226;2022-09-21T12:46:12;0.10;;;0.00;;
64208;SDS011;50527;52.414;13.226;2022-09-21T12:48:44;0.50;;;0.10;;
64208;SDS011;50527;52.414;13.226;2022-09-21T12:53:38;2.65;;;0.10;;
64208;SDS011;50527;52.414;13.226;2022-09-21T12:56:11;0.40;;;0.20;;
64208;SDS011;50527;52.414;13.226;2022-09-21T13:04:17;0.17;;;0.13;;
64208;SDS011;50527;52.414;13.226;2022-09-21T13:07:05;1.02;;;0.40;;
64208;SDS011;50527;52.414;13.226;2022-09-21T13:09:57;2.15;;;0.10;;
64208;SDS011;50527;52.414;13.226;2022-09-21T13:12:26;0.20;;;0.10;;
64208;SDS011;50527;52.414;13.226;2022-09-21T13:15:01;0.75;;;0.40;;
64208;SDS011;50527;52.414;13.226;2022-09-21T13:17:38;0.30;;;0.10;;
64208;SDS011;50527;52.414;13.226;2022-09-21T13:20:05;0.90;;;0.10;;
64208;SDS011;50527;52.414;13.226;2022-09-21T13:22:40;0.75;;;0.28;;
64208;SDS011;50527;52.414;13.226;2022-09-21T13:25:17;0.68;;;0.15;;
64208;SDS011;50527;52.414;13.226;2022-09-21T13:30:48;0.98;;;0.22;;
64208;SDS011;50527;52.414;13.226;2022-09-21T13:33:38;1.50;;;0.10;;
64208;SDS011;50527;52.414;13.226;2022-09-21T13:36:08;1.35;;;0.10;;
64208;SDS011;50527;52.414;13.226;2022-09-21T13:39:13;0.57;;;0.10;;
64208;SDS011;50527;52.414;13.226;2022-09-21T13:41:41;0.70;;;0.03;;
64208;SDS011;50527;52.414;13.226;2022-09-21T13:46:57;0.45;;;0.10;;
64208;SDS011;50527;52.414;13.226;2022-09-21T13:49:30;0.63;;;0.10;;
64208;SDS011;50527;52.414;13.226;2022-09-21T13:57:29;0.10;;;0.10;;
64208;SDS011;50527;52.414;13.226;2022-09-21T14:00:02;0.17;;;0.00;;
64208;SDS011;50527;52.414;13.226;2022-09-21T14:02:53;0.60;;;0.10;;
64208;SDS011;50527;52.414;13.226;2022-09-21T14:05:42;0.45;;;0.10;;
64208;SDS011;50527;52.414;13.226;2022-09-21T14:10:38;1.90;;;0.10;;
64208;SDS011;50527;52.414;13.226;2022-09-21T14:13:23;0.85;;;0.10;;
64208;SDS011;50527;52.414;13.226;2022-09-21T14:19:02;0.35;;;0.05;;
64208;SDS011;50527;52.414;13.226;2022-09-21T14:27:12;0.40;;;0.10;;
64208;SDS011;50527;52.414;13.226;2022-09-21T14:29:47;0.95;;;0.13;;
64208;SDS011;50527;52.414;13.226;2022-09-21T14:32:20;0.35;;;0.10;;
64208;SDS011;50527;52.414;13.226;2022-09-21T14:34:49;1.75;;;0.15;;
64208;SDS011;50527;52.414;13.226;2022-09-21T14:39:55;0.88;;;0.20;;
64208;SDS011;50527;52.414;13.226;2022-09-21T14:42:24;0.40;;;0.10;;
64208;SDS011;50527;52.414;13.226;2022-09-21T14:44:54;0.45;;;0.10;;
64208;SDS011;50527;52.414;13.226;2022-09-21T14:47:32;0.47;;;0.22;;
64208;SDS011;50527;52.414;13.226;2022-09-21T14:50:57;1.10;;;0.30;;
64208;SDS011;50527;52.414;13.226;2022-09-21T14:56:18;0.57;;;0.10;;
64208;SDS011;50527;52.414;13.226;2022-09-21T15:01:56;0.47;;;0.20;;
64208;SDS011;50527;52.414;13.226;2022-09-21T15:04:45;0.38;;;0.10;;
64208;SDS011;50527;52.414;13.226;2022-09-21T15:13:23;0.65;;;0.28;;
64208;SDS011;50527;52.414;13.226;2022-09-21T15:18:47;1.35;;;0.30;;
64208;SDS011;50527;52.414;13.226;2022-09-21T15:21:29;3.65;;;0.32;;
64208;SDS011;50527;52.414;13.226;2022-09-21T15:23:56;0.63;;;0.20;;
64208;SDS011;50527;52.414;13.226;2022-09-21T15:26:25;0.63;;;0.20;;
64208;SDS011;50527;52.414;13.226;2022-09-21T15:28:55;0.82;;;0.13;;
64208;SDS011;50527;52.414;13.226;2022-09-21T15:31:23;0.30;;;0.10;;
64208;SDS011;50527;52.414;13.226;2022-09-21T15:33:50;0.22;;;0.20;;
64208;SDS011;50527;52.414;13.226;2022-09-21T15:36:23;3.03;;;0.60;;
64208;SDS011;50527;52.414;13.226;2022-09-21T15:38:52;5.57;;;0.90;;
64208;SDS011;50527;52.414;13.226;2022-09-21T15:44:13;1.17;;;0.20;;
64208;SDS011;50527;52.414;13.226;2022-09-21T15:46:40;0.30;;;0.20;;
64208;SDS011;50527;52.414;13.226;2022-09-21T16:02:10;2.25;;;0.50;;
64208;SDS011;50527;52.414;13.226;2022-09-21T16:04:44;4.10;;;1.30;;
64208;SDS011;50527;52.414;13.226;2022-09-21T16:07:35;2.88;;;1.23;;
64208;SDS011;50527;52.414;13.226;2022-09-21T16:10:00;3.95;;;0.90;;
64208;SDS011;50527;52.414;13.226;2022-09-21T16:15:17;3.03;;;0.80;;
64208;SDS011;50527;52.414;13.226;2022-09-21T16:17:59;1.88;;;0.55;;
64208;SDS011;50527;52.414;13.226;2022-09-21T16:20:48;3.75;;;0.88;;
64208;SDS011;50527;52.414;13.226;2022-09-21T16:23:31;1.45;;;0.30;;
64208;SDS011;50527;52.414;13.226;2022-09-21T16:25:57;1.35;;;0.30;;
64208;SDS011;50527;52.414;13.226;2022-09-21T16:28:36;1.73;;;0.30;;
64208;SDS011;50527;52.414;13.226;2022-09-21T16:38:46;1.63;;;0.35;;
64208;SDS011;50527;52.414;13.226;2022-09-21T16:41:13;2.05;;;0.55;;
64208;SDS011;50527;52.414;13.226;2022-09-21T16:43:39;2.40;;;0.40;;
64208;SDS011;50527;52.414;13.226;2022-09-21T16:46:10;0.63;;;0.20;;
64208;SDS011;50527;52.414;13.226;2022-09-21T16:48:38;2.15;;;0.50;;
64208;SDS011;50527;52.414;13.226;2022-09-21T16:51:11;2.50;;;1.02;;
64208;SDS011;50527;52.414;13.226;2022-09-21T16:53:38;6.72;;;0.90;;
64208;SDS011;50527;52.414;13.226;2022-09-21T16:56:03;3.65;;;0.80;;
64208;SDS011;50527;52.414;13.226;2022-09-21T16:58:30;4.95;;;0.57;;
64208;SDS011;50527;52.414;13.226;2022-09-21T17:00:56;1.10;;;0.50;;
64208;SDS011;50527;52.414;13.226;2022-09-21T17:03:22;1.73;;;0.40;;
64208;SDS011;50527;52.414;13.226;2022-09-21T17:05:48;0.98;;;0.38;;
64208;SDS011;50527;52.414;13.226;2022-09-21T17:08:13;2.30;;;0.50;;
64208;SDS011;50527;52.414;13.226;2022-09-21T17:10:41;1.17;;;0.40;;
64208;SDS011;50527;52.414;13.226;2022-09-21T17:13:08;1.27;;;0.50;;
64208;SDS011;50527;52.414;13.226;2022-09-21T17:15:34;0.95;;;0.30;;
64208;SDS011;50527;52.414;13.226;2022-09-21T17:18:01;1.45;;;0.45;;
64208;SDS011;50527;52.414;13.226;2022-09-21T17:20:32;1.58;;;0.40;;
64208;SDS011;50527;52.414;13.226;2022-09-21T17:22:59;3.38;;;0.40;;
64208;SDS011;50527;52.414;13.226;2022-09-21T17:25:26;3.05;;;0.65;;
64208;SDS011;50527;52.414;13.226;2022-09-21T17:27:53;3.05;;;0.70;;
64208;SDS011;50527;52.414;13.226;2022-09-21T17:30:21;1.42;;;0.60;;
64208;SDS011;50527;52.414;13.226;2022-09-21T17:32:48;1.23;;;0.50;;